sensor_id;sensor_type;location;lat;lon;timestamp;P1;P2;P0
34240;PMS7003;20503;50.200;19.508;2024-01-07T00:00:15;39;27;16
34240;PMS7003;20503;50.200;19.508;2024-01-07T00:01:22;39;27;16
34240;PMS7003;20503;50.200;19.508;2024-01-07T00:02:42;45;31;20
34240;PMS7003;20503;50.200;19.508;2024-01-07T00:03:43;56;40;24
34240;PMS7003;20503;50.200;19.508;2024-01-07T00:04:45;56;40;24
34240;PMS7003;20503;50.200;19.508;2024-01-07T00:05:46;48;35;20
34240;PMS7003;20503;50.200;19.508;2024-01-07T00:06:48;48;35;20
34240;PMS7003;20503;50.200;19.508;2024-01-07T00:07:49;45;31;21
34240;PMS7003;20503;50.200;19.508;2024-01-07T00:08:52;47;31;19
34240;PMS7003;20503;50.200;19.508;2024-01-07T00:09:53;47;34;18
34240;PMS7003;20503;50.200;19.508;2024-01-07T00:10:55;37;26;18
34240;PMS7003;20503;50.200;19.508;2024-01-07T00:12:09;35;23;16
34240;PMS7003;20503;50.200;19.508;2024-01-07T00:13:10;31;23;15
34240;PMS7003;20503;50.200;19.508;2024-01-07T00:14:11;34;26;17
34240;PMS7003;20503;50.200;19.508;2024-01-07T00:15:12;34;26;17
34240;PMS7003;20503;50.200;19.508;2024-01-07T00:16:14;28;23;16
34240;PMS7003;20503;50.200;19.508;2024-01-07T00:17:16;28;23;16
34240;PMS7003;20503;50.200;19.508;2024-01-07T00:18:17;35;24;16
34240;PMS7003;20503;50.200;19.508;2024-01-07T00:19:18;30;25;17
34240;PMS7003;20503;50.200;19.508;2024-01-07T00:20:20;30;25;17
34240;PMS7003;20503;50.200;19.508;2024-01-07T00:21:21;35;27;19
34240;PMS7003;20503;50.200;19.508;2024-01-07T00:22:22;36;28;18
34240;PMS7003;20503;50.200;19.508;2024-01-07T00:23:24;34;26;16
34240;PMS7003;20503;50.200;19.508;2024-01-07T00:24:25;34;26;16
34240;PMS7003;20503;50.200;19.508;2024-01-07T00:25:29;37;27;16
34240;PMS7003;20503;50.200;19.508;2024-01-07T00:26:31;33;22;15
34240;PMS7003;20503;50.200;19.508;2024-01-07T00:27:33;29;22;16
34240;PMS7003;20503;50.200;19.508;2024-01-07T00:28:34;33;25;16
34240;PMS7003;20503;50.200;19.508;2024-01-07T00:29:35;33;25;16
34240;PMS7003;20503;50.200;19.508;2024-01-07T00:30:37;40;26;16
34240;PMS7003;20503;50.200;19.508;2024-01-07T00:31:38;40;26;16
34240;PMS7003;20503;50.200;19.508;2024-01-07T00:32:39;35;24;16
34240;PMS7003;20503;50.200;19.508;2024-01-07T00:33:41;35;24;16
34240;PMS7003;20503;50.200;19.508;2024-01-07T00:34:42;36;25;16
34240;PMS7003;20503;50.200;19.508;2024-01-07T00:35:43;38;26;18
34240;PMS7003;20503;50.200;19.508;2024-01-07T00:36:45;38;26;18
34240;PMS7003;20503;50.200;19.508;2024-01-07T00:37:46;35;26;17
34240;PMS7003;20503;50.200;19.508;2024-01-07T00:38:47;35;26;17
34240;PMS7003;20503;50.200;19.508;2024-01-07T00:39:49;35;25;16
34240;PMS7003;20503;50.200;19.508;2024-01-07T00:40:50;35;25;18
34240;PMS7003;20503;50.200;19.508;2024-01-07T00:41:52;35;25;18
34240;PMS7003;20503;50.200;19.508;2024-01-07T00:42:53;33;25;16
34240;PMS7003;20503;50.200;19.508;2024-01-07T00:43:54;33;25;16
34240;PMS7003;20503;50.200;19.508;2024-01-07T00:44:55;34;21;15
34240;PMS7003;20503;50.200;19.508;2024-01-07T00:45:57;34;23;15
34240;PMS7003;20503;50.200;19.508;2024-01-07T00:46:58;34;23;15
34240;PMS7003;20503;50.200;19.508;2024-01-07T00:47:59;32;23;15
34240;PMS7003;20503;50.200;19.508;2024-01-07T00:49:00;32;23;15
34240;PMS7003;20503;50.200;19.508;2024-01-07T00:50:01;35;24;16
34240;PMS7003;20503;50.200;19.508;2024-01-07T00:51:03;30;21;14
34240;PMS7003;20503;50.200;19.508;2024-01-07T00:52:05;30;21;14
34240;PMS7003;20503;50.200;19.508;2024-01-07T00:53:06;31;23;14
34240;PMS7003;20503;50.200;19.508;2024-01-07T00:54:07;31;23;14
34240;PMS7003;20503;50.200;19.508;2024-01-07T00:55:09;33;23;15
34240;PMS7003;20503;50.200;19.508;2024-01-07T00:56:10;28;23;15
34240;PMS7003;20503;50.200;19.508;2024-01-07T00:57:12;31;20;14
34240;PMS7003;20503;50.200;19.508;2024-01-07T00:58:13;30;22;15
34240;PMS7003;20503;50.200;19.508;2024-01-07T00:59:15;30;22;15
34240;PMS7003;20503;50.200;19.508;2024-01-07T01:00:17;26;19;12
34240;PMS7003;20503;50.200;19.508;2024-01-07T01:01:19;26;19;12
34240;PMS7003;20503;50.200;19.508;2024-01-07T01:02:21;31;23;15
34240;PMS7003;20503;50.200;19.508;2024-01-07T01:03:22;26;20;14
34240;PMS7003;20503;50.200;19.508;2024-01-07T01:04:24;26;20;14
34240;PMS7003;20503;50.200;19.508;2024-01-07T01:05:25;26;20;13
34240;PMS7003;20503;50.200;19.508;2024-01-07T01:06:45;28;17;12
34240;PMS7003;20503;50.200;19.508;2024-01-07T01:08:14;22;18;13
34240;PMS7003;20503;50.200;19.508;2024-01-07T01:09:16;26;18;12
34240;PMS7003;20503;50.200;19.508;2024-01-07T01:10:17;26;18;12
34240;PMS7003;20503;50.200;19.508;2024-01-07T01:11:20;25;18;12
34240;PMS7003;20503;50.200;19.508;2024-01-07T01:12:21;25;18;12
34240;PMS7003;20503;50.200;19.508;2024-01-07T01:13:22;29;21;14
34240;PMS7003;20503;50.200;19.508;2024-01-07T01:14:23;25;19;12
34240;PMS7003;20503;50.200;19.508;2024-01-07T01:15:25;25;19;12
34240;PMS7003;20503;50.200;19.508;2024-01-07T01:16:26;26;20;12
34240;PMS7003;20503;50.200;19.508;2024-01-07T01:17:27;26;20;12
34240;PMS7003;20503;50.200;19.508;2024-01-07T01:18:28;22;19;13
34240;PMS7003;20503;50.200;19.508;2024-01-07T01:19:30;29;19;13
34240;PMS7003;20503;50.200;19.508;2024-01-07T01:20:31;29;19;13
34240;PMS7003;20503;50.200;19.508;2024-01-07T01:21:33;32;17;13
34240;PMS7003;20503;50.200;19.508;2024-01-07T01:22:34;32;17;13
34240;PMS7003;20503;50.200;19.508;2024-01-07T01:23:36;24;17;12
34240;PMS7003;20503;50.200;19.508;2024-01-07T01:24:37;24;17;12
34240;PMS7003;20503;50.200;19.508;2024-01-07T01:25:38;26;19;12
34240;PMS7003;20503;50.200;19.508;2024-01-07T01:26:40;26;18;13
34240;PMS7003;20503;50.200;19.508;2024-01-07T01:28:00;28;23;13
34240;PMS7003;20503;50.200;19.508;2024-01-07T01:29:02;26;21;12
34240;PMS7003;20503;50.200;19.508;2024-01-07T01:30:04;26;21;12
34240;PMS7003;20503;50.200;19.508;2024-01-07T01:31:06;25;18;12
34240;PMS7003;20503;50.200;19.508;2024-01-07T01:32:08;22;16;11
34240;PMS7003;20503;50.200;19.508;2024-01-07T01:33:09;22;16;11
34240;PMS7003;20503;50.200;19.508;2024-01-07T01:34:10;24;18;11
34240;PMS7003;20503;50.200;19.508;2024-01-07T01:35:11;24;18;11
34240;PMS7003;20503;50.200;19.508;2024-01-07T01:36:13;25;15;11
34240;PMS7003;20503;50.200;19.508;2024-01-07T01:37:14;25;17;12
34240;PMS7003;20503;50.200;19.508;2024-01-07T01:38:16;25;17;12
34240;PMS7003;20503;50.200;19.508;2024-01-07T01:39:40;23;13;10
34240;PMS7003;20503;50.200;19.508;2024-01-07T01:40:41;23;13;10
34240;PMS7003;20503;50.200;19.508;2024-01-07T01:41:43;20;14;10
34240;PMS7003;20503;50.200;19.508;2024-01-07T01:42:44;22;17;11
34240;PMS7003;20503;50.200;19.508;2024-01-07T01:43:46;22;17;11
34240;PMS7003;20503;50.200;19.508;2024-01-07T01:44:47;19;14;11
34240;PMS7003;20503;50.200;19.508;2024-01-07T01:45:48;19;14;11
34240;PMS7003;20503;50.200;19.508;2024-01-07T01:46:49;26;18;11
34240;PMS7003;20503;50.200;19.508;2024-01-07T01:47:51;21;15;11
34240;PMS7003;20503;50.200;19.508;2024-01-07T01:48:53;21;15;11
34240;PMS7003;20503;50.200;19.508;2024-01-07T01:49:56;23;16;12
34240;PMS7003;20503;50.200;19.508;2024-01-07T01:50:58;23;16;12
34240;PMS7003;20503;50.200;19.508;2024-01-07T01:52:01;20;15;11
34240;PMS7003;20503;50.200;19.508;2024-01-07T01:53:03;21;14;10
34240;PMS7003;20503;50.200;19.508;2024-01-07T01:54:04;21;14;10
34240;PMS7003;20503;50.200;19.508;2024-01-07T01:55:06;22;16;11
34240;PMS7003;20503;50.200;19.508;2024-01-07T01:56:07;22;16;11
34240;PMS7003;20503;50.200;19.508;2024-01-07T01:57:09;23;15;11
34240;PMS7003;20503;50.200;19.508;2024-01-07T01:58:18;25;16;10
34240;PMS7003;20503;50.200;19.508;2024-01-07T01:59:20;25;16;10
34240;PMS7003;20503;50.200;19.508;2024-01-07T02:00:23;21;15;10
34240;PMS7003;20503;50.200;19.508;2024-01-07T02:01:24;21;15;10
34240;PMS7003;20503;50.200;19.508;2024-01-07T02:02:25;21;16;11
34240;PMS7003;20503;50.200;19.508;2024-01-07T02:03:46;23;17;11
34240;PMS7003;20503;50.200;19.508;2024-01-07T02:04:48;23;17;11
34240;PMS7003;20503;50.200;19.508;2024-01-07T02:05:49;22;16;11
34240;PMS7003;20503;50.200;19.508;2024-01-07T02:06:51;22;16;11
34240;PMS7003;20503;50.200;19.508;2024-01-07T02:07:53;20;14;10
34240;PMS7003;20503;50.200;19.508;2024-01-07T02:08:57;20;15;11
34240;PMS7003;20503;50.200;19.508;2024-01-07T02:09:59;23;18;12
34240;PMS7003;20503;50.200;19.508;2024-01-07T02:11:13;25;15;11
34240;PMS7003;20503;50.200;19.508;2024-01-07T02:12:12;25;15;11
34240;PMS7003;20503;50.200;19.508;2024-01-07T02:13:14;25;18;12
34240;PMS7003;20503;50.200;19.508;2024-01-07T02:14:16;24;15;11
34240;PMS7003;20503;50.200;19.508;2024-01-07T02:15:17;23;15;10
34240;PMS7003;20503;50.200;19.508;2024-01-07T02:16:19;23;15;10
34240;PMS7003;20503;50.200;19.508;2024-01-07T02:17:20;20;14;11
34240;PMS7003;20503;50.200;19.508;2024-01-07T02:18:32;19;13;9
34240;PMS7003;20503;50.200;19.508;2024-01-07T02:19:34;18;13;9
34240;PMS7003;20503;50.200;19.508;2024-01-07T02:20:35;21;13;10
34240;PMS7003;20503;50.200;19.508;2024-01-07T02:21:37;21;13;10
34240;PMS7003;20503;50.200;19.508;2024-01-07T02:22:41;18;13;10
34240;PMS7003;20503;50.200;19.508;2024-01-07T02:23:42;18;13;10
34240;PMS7003;20503;50.200;19.508;2024-01-07T02:24:43;18;12;9
34240;PMS7003;20503;50.200;19.508;2024-01-07T02:25:45;18;12;9
34240;PMS7003;20503;50.200;19.508;2024-01-07T02:26:46;18;14;10
34240;PMS7003;20503;50.200;19.508;2024-01-07T02:27:47;17;12;9
34240;PMS7003;20503;50.200;19.508;2024-01-07T02:28:48;17;12;9
34240;PMS7003;20503;50.200;19.508;2024-01-07T02:29:50;17;14;9
34240;PMS7003;20503;50.200;19.508;2024-01-07T02:30:51;17;14;9
34240;PMS7003;20503;50.200;19.508;2024-01-07T02:31:52;22;13;10
34240;PMS7003;20503;50.200;19.508;2024-01-07T02:32:53;19;13;8
34240;PMS7003;20503;50.200;19.508;2024-01-07T02:33:55;19;11;8
34240;PMS7003;20503;50.200;19.508;2024-01-07T02:35:14;17;12;8
34240;PMS7003;20503;50.200;19.508;2024-01-07T02:36:15;17;12;8
34240;PMS7003;20503;50.200;19.508;2024-01-07T02:37:17;18;14;9
34240;PMS7003;20503;50.200;19.508;2024-01-07T02:38:42;19;13;8
34240;PMS7003;20503;50.200;19.508;2024-01-07T02:39:43;17;14;10
34240;PMS7003;20503;50.200;19.508;2024-01-07T02:40:45;17;13;10
34240;PMS7003;20503;50.200;19.508;2024-01-07T02:41:46;17;13;10
34240;PMS7003;20503;50.200;19.508;2024-01-07T02:42:50;18;13;9
34240;PMS7003;20503;50.200;19.508;2024-01-07T02:43:51;18;13;9
34240;PMS7003;20503;50.200;19.508;2024-01-07T02:44:53;20;14;9
34240;PMS7003;20503;50.200;19.508;2024-01-07T02:45:54;18;12;9
34240;PMS7003;20503;50.200;19.508;2024-01-07T02:46:55;18;12;9
34240;PMS7003;20503;50.200;19.508;2024-01-07T02:47:57;18;12;8
34240;PMS7003;20503;50.200;19.508;2024-01-07T02:48:58;18;12;8
34240;PMS7003;20503;50.200;19.508;2024-01-07T02:49:59;19;13;9
34240;PMS7003;20503;50.200;19.508;2024-01-07T02:51:00;18;11;9
34240;PMS7003;20503;50.200;19.508;2024-01-07T02:52:05;21;15;12
34240;PMS7003;20503;50.200;19.508;2024-01-07T02:53:07;21;15;12
34240;PMS7003;20503;50.200;19.508;2024-01-07T02:54:11;16;12;8
34240;PMS7003;20503;50.200;19.508;2024-01-07T02:55:12;16;12;8
34240;PMS7003;20503;50.200;19.508;2024-01-07T02:56:14;22;12;9
34240;PMS7003;20503;50.200;19.508;2024-01-07T02:57:15;18;11;8
34240;PMS7003;20503;50.200;19.508;2024-01-07T02:58:17;18;11;10
34240;PMS7003;20503;50.200;19.508;2024-01-07T02:59:18;16;11;8
34240;PMS7003;20503;50.200;19.508;2024-01-07T03:00:19;16;11;8
34240;PMS7003;20503;50.200;19.508;2024-01-07T03:01:24;14;10;7
34240;PMS7003;20503;50.200;19.508;2024-01-07T03:02:26;14;10;7
34240;PMS7003;20503;50.200;19.508;2024-01-07T03:03:27;16;9;8
34240;PMS7003;20503;50.200;19.508;2024-01-07T03:04:28;13;11;7
34240;PMS7003;20503;50.200;19.508;2024-01-07T03:05:29;13;11;7
34240;PMS7003;20503;50.200;19.508;2024-01-07T03:06:34;13;8;8
34240;PMS7003;20503;50.200;19.508;2024-01-07T03:07:37;13;8;8
34240;PMS7003;20503;50.200;19.508;2024-01-07T03:08:39;17;11;8
34240;PMS7003;20503;50.200;19.508;2024-01-07T03:09:40;17;11;8
34240;PMS7003;20503;50.200;19.508;2024-01-07T03:10:42;16;11;8
34240;PMS7003;20503;50.200;19.508;2024-01-07T03:11:43;16;12;8
34240;PMS7003;20503;50.200;19.508;2024-01-07T03:12:44;16;12;8
34240;PMS7003;20503;50.200;19.508;2024-01-07T03:13:45;18;11;7
34240;PMS7003;20503;50.200;19.508;2024-01-07T03:14:46;18;11;7
34240;PMS7003;20503;50.200;19.508;2024-01-07T03:15:48;16;12;8
34240;PMS7003;20503;50.200;19.508;2024-01-07T03:16:50;16;12;8
34240;PMS7003;20503;50.200;19.508;2024-01-07T03:17:51;18;11;7
34240;PMS7003;20503;50.200;19.508;2024-01-07T03:18:53;17;11;8
34240;PMS7003;20503;50.200;19.508;2024-01-07T03:19:55;13;10;8
34240;PMS7003;20503;50.200;19.508;2024-01-07T03:20:57;13;10;8
34240;PMS7003;20503;50.200;19.508;2024-01-07T03:21:59;14;8;6
34240;PMS7003;20503;50.200;19.508;2024-01-07T03:23:00;16;12;10
34240;PMS7003;20503;50.200;19.508;2024-01-07T03:24:10;15;10;7
34240;PMS7003;20503;50.200;19.508;2024-01-07T03:25:11;13;11;7
34240;PMS7003;20503;50.200;19.508;2024-01-07T03:26:13;13;11;7
34240;PMS7003;20503;50.200;19.508;2024-01-07T03:27:14;15;11;8
34240;PMS7003;20503;50.200;19.508;2024-01-07T03:28:16;15;11;8
34240;PMS7003;20503;50.200;19.508;2024-01-07T03:29:17;17;10;7
34240;PMS7003;20503;50.200;19.508;2024-01-07T03:30:18;17;10;7
34240;PMS7003;20503;50.200;19.508;2024-01-07T03:31:19;14;10;7
34240;PMS7003;20503;50.200;19.508;2024-01-07T03:32:42;16;11;6
34240;PMS7003;20503;50.200;19.508;2024-01-07T03:33:43;16;11;6
34240;PMS7003;20503;50.200;19.508;2024-01-07T03:34:45;17;12;8
34240;PMS7003;20503;50.200;19.508;2024-01-07T03:35:46;17;12;8
34240;PMS7003;20503;50.200;19.508;2024-01-07T03:36:47;16;11;8
34240;PMS7003;20503;50.200;19.508;2024-01-07T03:37:48;16;11;8
34240;PMS7003;20503;50.200;19.508;2024-01-07T03:38:50;20;12;9
34240;PMS7003;20503;50.200;19.508;2024-01-07T03:39:51;20;12;9
34240;PMS7003;20503;50.200;19.508;2024-01-07T03:40:52;20;13;9
34240;PMS7003;20503;50.200;19.508;2024-01-07T03:41:56;22;14;9
34240;PMS7003;20503;50.200;19.508;2024-01-07T03:42:58;22;14;9
34240;PMS7003;20503;50.200;19.508;2024-01-07T03:43:59;19;15;9
34240;PMS7003;20503;50.200;19.508;2024-01-07T03:45:01;19;15;9
34240;PMS7003;20503;50.200;19.508;2024-01-07T03:46:03;16;11;8
34240;PMS7003;20503;50.200;19.508;2024-01-07T03:47:04;21;13;9
34240;PMS7003;20503;50.200;19.508;2024-01-07T03:48:07;21;13;9
34240;PMS7003;20503;50.200;19.508;2024-01-07T03:49:08;13;9;8
34240;PMS7003;20503;50.200;19.508;2024-01-07T03:50:09;13;9;8
34240;PMS7003;20503;50.200;19.508;2024-01-07T03:51:10;15;10;7
34240;PMS7003;20503;50.200;19.508;2024-01-07T03:52:12;15;10;7
34240;PMS7003;20503;50.200;19.508;2024-01-07T03:53:13;16;12;8
34240;PMS7003;20503;50.200;19.508;2024-01-07T03:54:15;15;11;8
34240;PMS7003;20503;50.200;19.508;2024-01-07T03:55:16;15;11;8
34240;PMS7003;20503;50.200;19.508;2024-01-07T03:56:17;16;11;8
34240;PMS7003;20503;50.200;19.508;2024-01-07T03:57:19;13;9;6
34240;PMS7003;20503;50.200;19.508;2024-01-07T03:58:20;13;10;7
34240;PMS7003;20503;50.200;19.508;2024-01-07T03:59:21;13;10;7
34240;PMS7003;20503;50.200;19.508;2024-01-07T04:00:34;13;8;6
34240;PMS7003;20503;50.200;19.508;2024-01-07T04:01:35;13;8;6
34240;PMS7003;20503;50.200;19.508;2024-01-07T04:02:37;16;9;7
34240;PMS7003;20503;50.200;19.508;2024-01-07T04:03:38;15;10;7
34240;PMS7003;20503;50.200;19.508;2024-01-07T04:04:39;15;10;7
34240;PMS7003;20503;50.200;19.508;2024-01-07T04:05:41;16;9;7
34240;PMS7003;20503;50.200;19.508;2024-01-07T04:06:42;16;9;7
34240;PMS7003;20503;50.200;19.508;2024-01-07T04:07:43;15;9;6
34240;PMS7003;20503;50.200;19.508;2024-01-07T04:08:45;18;11;8
34240;PMS7003;20503;50.200;19.508;2024-01-07T04:09:46;21;12;8
34240;PMS7003;20503;50.200;19.508;2024-01-07T04:10:48;14;11;7
34240;PMS7003;20503;50.200;19.508;2024-01-07T04:11:50;14;11;7
34240;PMS7003;20503;50.200;19.508;2024-01-07T04:12:51;17;12;8
34240;PMS7003;20503;50.200;19.508;2024-01-07T04:13:52;39;27;16
34240;PMS7003;20503;50.200;19.508;2024-01-07T04:14:54;39;27;16
34240;PMS7003;20503;50.200;19.508;2024-01-07T04:15:55;21;13;9
34240;PMS7003;20503;50.200;19.508;2024-01-07T04:17:15;15;12;8
34240;PMS7003;20503;50.200;19.508;2024-01-07T04:18:16;15;12;8
34240;PMS7003;20503;50.200;19.508;2024-01-07T04:19:18;18;12;9
34240;PMS7003;20503;50.200;19.508;2024-01-07T04:20:20;18;12;9
34240;PMS7003;20503;50.200;19.508;2024-01-07T04:21:21;53;39;25
34240;PMS7003;20503;50.200;19.508;2024-01-07T04:22:23;46;36;20
34240;PMS7003;20503;50.200;19.508;2024-01-07T04:23:24;46;36;20
34240;PMS7003;20503;50.200;19.508;2024-01-07T04:24:25;32;22;13
34240;PMS7003;20503;50.200;19.508;2024-01-07T04:25:26;32;22;13
34240;PMS7003;20503;50.200;19.508;2024-01-07T04:26:28;31;19;13
34240;PMS7003;20503;50.200;19.508;2024-01-07T04:27:29;23;16;11
34240;PMS7003;20503;50.200;19.508;2024-01-07T04:28:30;23;16;11
34240;PMS7003;20503;50.200;19.508;2024-01-07T04:29:32;30;19;13
34240;PMS7003;20503;50.200;19.508;2024-01-07T04:30:33;30;19;13
34240;PMS7003;20503;50.200;19.508;2024-01-07T04:31:36;20;12;9
34240;PMS7003;20503;50.200;19.508;2024-01-07T04:32:38;25;17;10
34240;PMS7003;20503;50.200;19.508;2024-01-07T04:33:39;23;16;10
34240;PMS7003;20503;50.200;19.508;2024-01-07T04:34:40;23;16;10
34240;PMS7003;20503;50.200;19.508;2024-01-07T04:35:41;17;11;8
34240;PMS7003;20503;50.200;19.508;2024-01-07T04:36:43;17;11;8
34240;PMS7003;20503;50.200;19.508;2024-01-07T04:37:44;16;10;7
34240;PMS7003;20503;50.200;19.508;2024-01-07T04:38:45;20;13;10
34240;PMS7003;20503;50.200;19.508;2024-01-07T04:39:46;20;13;10
34240;PMS7003;20503;50.200;19.508;2024-01-07T04:40:48;18;11;8
34240;PMS7003;20503;50.200;19.508;2024-01-07T04:41:49;18;11;8
34240;PMS7003;20503;50.200;19.508;2024-01-07T04:42:51;22;15;9
34240;PMS7003;20503;50.200;19.508;2024-01-07T04:43:52;12;10;8
34240;PMS7003;20503;50.200;19.508;2024-01-07T04:44:53;11;9;8
34240;PMS7003;20503;50.200;19.508;2024-01-07T04:45:55;23;16;11
34240;PMS7003;20503;50.200;19.508;2024-01-07T04:46:56;23;16;11
34240;PMS7003;20503;50.200;19.508;2024-01-07T04:48:18;16;10;7
34240;PMS7003;20503;50.200;19.508;2024-01-07T04:49:20;16;10;7
34240;PMS7003;20503;50.200;19.508;2024-01-07T04:50:21;13;9;7
34240;PMS7003;20503;50.200;19.508;2024-01-07T04:51:23;8;8;5
34240;PMS7003;20503;50.200;19.508;2024-01-07T04:52:24;8;8;5
34240;PMS7003;20503;50.200;19.508;2024-01-07T04:53:26;13;7;5
34240;PMS7003;20503;50.200;19.508;2024-01-07T04:54:27;13;7;5
34240;PMS7003;20503;50.200;19.508;2024-01-07T04:55:37;11;8;5
34240;PMS7003;20503;50.200;19.508;2024-01-07T04:56:38;12;8;5
34240;PMS7003;20503;50.200;19.508;2024-01-07T04:57:40;12;8;5
34240;PMS7003;20503;50.200;19.508;2024-01-07T04:58:41;14;9;5
34240;PMS7003;20503;50.200;19.508;2024-01-07T04:59:42;14;9;5
34240;PMS7003;20503;50.200;19.508;2024-01-07T05:00:43;16;10;6
34240;PMS7003;20503;50.200;19.508;2024-01-07T05:01:45;16;10;6
34240;PMS7003;20503;50.200;19.508;2024-01-07T05:02:46;13;8;5
34240;PMS7003;20503;50.200;19.508;2024-01-07T05:03:47;13;8;5
34240;PMS7003;20503;50.200;19.508;2024-01-07T05:04:49;11;9;7
34240;PMS7003;20503;50.200;19.508;2024-01-07T05:05:50;11;9;7
34240;PMS7003;20503;50.200;19.508;2024-01-07T05:06:51;9;7;5
34240;PMS7003;20503;50.200;19.508;2024-01-07T05:07:52;10;7;5
34240;PMS7003;20503;50.200;19.508;2024-01-07T05:08:53;10;8;5
34240;PMS7003;20503;50.200;19.508;2024-01-07T05:09:55;12;9;6
34240;PMS7003;20503;50.200;19.508;2024-01-07T05:10:56;12;9;6
34240;PMS7003;20503;50.200;19.508;2024-01-07T05:11:57;12;8;6
34240;PMS7003;20503;50.200;19.508;2024-01-07T05:12:58;15;10;8
34240;PMS7003;20503;50.200;19.508;2024-01-07T05:14:07;11;8;6
34240;PMS7003;20503;50.200;19.508;2024-01-07T05:15:08;11;8;6
34240;PMS7003;20503;50.200;19.508;2024-01-07T05:17:21;15;8;6
34240;PMS7003;20503;50.200;19.508;2024-01-07T05:18:22;15;8;6
34240;PMS7003;20503;50.200;19.508;2024-01-07T05:19:24;22;15;9
34240;PMS7003;20503;50.200;19.508;2024-01-07T05:20:26;10;7;5
34240;PMS7003;20503;50.200;19.508;2024-01-07T05:21:27;13;7;5
34240;PMS7003;20503;50.200;19.508;2024-01-07T05:22:28;13;7;5
34240;PMS7003;20503;50.200;19.508;2024-01-07T05:23:29;14;8;6
34240;PMS7003;20503;50.200;19.508;2024-01-07T05:24:43;12;8;6
34240;PMS7003;20503;50.200;19.508;2024-01-07T05:25:44;19;14;8
34240;PMS7003;20503;50.200;19.508;2024-01-07T05:26:46;12;8;6
34240;PMS7003;20503;50.200;19.508;2024-01-07T05:27:48;10;8;5
34240;PMS7003;20503;50.200;19.508;2024-01-07T05:28:49;17;8;5
34240;PMS7003;20503;50.200;19.508;2024-01-07T05:29:59;15;7;4
34240;PMS7003;20503;50.200;19.508;2024-01-07T05:31:00;15;7;4
34240;PMS7003;20503;50.200;19.508;2024-01-07T05:32:02;13;7;4
34240;PMS7003;20503;50.200;19.508;2024-01-07T05:33:05;12;7;4
34240;PMS7003;20503;50.200;19.508;2024-01-07T05:34:06;12;7;4
34240;PMS7003;20503;50.200;19.508;2024-01-07T05:35:08;11;7;5
34240;PMS7003;20503;50.200;19.508;2024-01-07T05:36:13;11;7;5
34240;PMS7003;20503;50.200;19.508;2024-01-07T05:37:15;10;7;5
34240;PMS7003;20503;50.200;19.508;2024-01-07T05:38:16;10;7;5
34240;PMS7003;20503;50.200;19.508;2024-01-07T05:39:17;10;6;4
34240;PMS7003;20503;50.200;19.508;2024-01-07T05:40:19;12;6;4
34240;PMS7003;20503;50.200;19.508;2024-01-07T05:41:20;12;6;4
34240;PMS7003;20503;50.200;19.508;2024-01-07T05:42:21;11;7;5
34240;PMS7003;20503;50.200;19.508;2024-01-07T05:43:22;11;7;5
34240;PMS7003;20503;50.200;19.508;2024-01-07T05:44:23;11;7;5
34240;PMS7003;20503;50.200;19.508;2024-01-07T05:45:25;10;5;4
34240;PMS7003;20503;50.200;19.508;2024-01-07T05:46:26;11;6;4
34240;PMS7003;20503;50.200;19.508;2024-01-07T05:47:28;12;7;4
34240;PMS7003;20503;50.200;19.508;2024-01-07T05:48:40;12;7;4
34240;PMS7003;20503;50.200;19.508;2024-01-07T05:49:45;12;5;4
34240;PMS7003;20503;50.200;19.508;2024-01-07T05:50:55;10;5;4
34240;PMS7003;20503;50.200;19.508;2024-01-07T05:51:56;10;4;4
34240;PMS7003;20503;50.200;19.508;2024-01-07T05:52:57;10;4;4
34240;PMS7003;20503;50.200;19.508;2024-01-07T05:53:58;11;7;4
34240;PMS7003;20503;50.200;19.508;2024-01-07T05:54:59;9;6;4
34240;PMS7003;20503;50.200;19.508;2024-01-07T05:56:01;9;6;4
34240;PMS7003;20503;50.200;19.508;2024-01-07T05:57:03;11;6;5
34240;PMS7003;20503;50.200;19.508;2024-01-07T05:58:05;11;6;5
34240;PMS7003;20503;50.200;19.508;2024-01-07T05:59:07;9;7;5
34240;PMS7003;20503;50.200;19.508;2024-01-07T06:00:09;11;7;4
34240;PMS7003;20503;50.200;19.508;2024-01-07T06:01:17;11;7;4
34240;PMS7003;20503;50.200;19.508;2024-01-07T06:02:22;8;8;4
34240;PMS7003;20503;50.200;19.508;2024-01-07T06:03:25;8;8;4
34240;PMS7003;20503;50.200;19.508;2024-01-07T06:04:27;9;8;5
34240;PMS7003;20503;50.200;19.508;2024-01-07T06:05:29;9;8;5
34240;PMS7003;20503;50.200;19.508;2024-01-07T06:06:49;11;4;4
34240;PMS7003;20503;50.200;19.508;2024-01-07T06:07:50;10;5;4
34240;PMS7003;20503;50.200;19.508;2024-01-07T06:08:52;10;5;4
34240;PMS7003;20503;50.200;19.508;2024-01-07T06:09:53;12;8;5
34240;PMS7003;20503;50.200;19.508;2024-01-07T06:10:55;12;8;5
34240;PMS7003;20503;50.200;19.508;2024-01-07T06:11:56;11;7;4
34240;PMS7003;20503;50.200;19.508;2024-01-07T06:12:58;11;7;4
34240;PMS7003;20503;50.200;19.508;2024-01-07T06:13:59;13;8;5
34240;PMS7003;20503;50.200;19.508;2024-01-07T06:15:00;11;7;5
34240;PMS7003;20503;50.200;19.508;2024-01-07T06:16:01;9;5;4
34240;PMS7003;20503;50.200;19.508;2024-01-07T06:17:03;7;5;4
34240;PMS7003;20503;50.200;19.508;2024-01-07T06:18:04;7;5;4
34240;PMS7003;20503;50.200;19.508;2024-01-07T06:19:05;11;7;5
34240;PMS7003;20503;50.200;19.508;2024-01-07T06:20:07;11;7;5
34240;PMS7003;20503;50.200;19.508;2024-01-07T06:21:09;12;5;4
34240;PMS7003;20503;50.200;19.508;2024-01-07T06:22:18;12;7;5
34240;PMS7003;20503;50.200;19.508;2024-01-07T06:23:19;13;7;4
34240;PMS7003;20503;50.200;19.508;2024-01-07T06:24:20;13;7;4
34240;PMS7003;20503;50.200;19.508;2024-01-07T06:25:21;13;8;4
34240;PMS7003;20503;50.200;19.508;2024-01-07T06:26:46;13;7;5
34240;PMS7003;20503;50.200;19.508;2024-01-07T06:27:47;13;7;5
34240;PMS7003;20503;50.200;19.508;2024-01-07T06:28:48;15;8;6
34240;PMS7003;20503;50.200;19.508;2024-01-07T06:29:50;15;8;6
34240;PMS7003;20503;50.200;19.508;2024-01-07T06:30:52;12;8;5
34240;PMS7003;20503;50.200;19.508;2024-01-07T06:31:54;10;8;5
34240;PMS7003;20503;50.200;19.508;2024-01-07T06:32:55;11;8;6
34240;PMS7003;20503;50.200;19.508;2024-01-07T06:33:57;21;13;8
34240;PMS7003;20503;50.200;19.508;2024-01-07T06:34:58;21;13;8
34240;PMS7003;20503;50.200;19.508;2024-01-07T06:36:00;12;8;6
34240;PMS7003;20503;50.200;19.508;2024-01-07T06:37:01;12;8;6
34240;PMS7003;20503;50.200;19.508;2024-01-07T06:38:03;14;9;6
34240;PMS7003;20503;50.200;19.508;2024-01-07T06:39:05;16;10;7
34240;PMS7003;20503;50.200;19.508;2024-01-07T06:40:08;16;10;7
34240;PMS7003;20503;50.200;19.508;2024-01-07T06:41:31;16;12;6
34240;PMS7003;20503;50.200;19.508;2024-01-07T06:42:33;16;12;6